Time;durP1;ratioP1;P1;durP2;ratioP2;P2;SDS_P1;SDS_P2;PMS_P1;PMS_P2;Temp;Humidity;BMP_temperature;BMP_pressure;BME280_temperature;BME280_humidity;BME280_pressure;Samples;Min_cycle;Max_cycle;Signal;HPM_P1;HPM_P2
2021/11/06 00:00:45;;;;;;;12.02;7.15;;;8.50;99.90;;;;;;2073806;28;20049;-71
2021/11/06 00:01:46;;;;;;;14.20;7.90;;;8.50;99.90;;;;;;2074353;28;20048;-70
2021/11/06 00:02:47;;;;;;;12.70;7.57;;;8.50;99.90;;;;;;2073046;28;20040;-70
2021/11/06 00:03:47;;;;;;;14.32;8.10;;;8.50;99.90;;;;;;2070545;28;20485;-70
2021/11/06 00:04:48;;;;;;;10.30;7.00;;;8.50;99.90;;;;;;2072972;28;20026;-71
2021/11/06 00:05:48;;;;;;;10.32;7.22;;;8.50;99.90;;;;;;2081427;28;20025;-70
2021/11/06 00:06:49;;;;;;;12.93;7.80;;;8.50;99.90;;;;;;2079662;28;20143;-70
2021/11/06 00:07:50;;;;;;;14.23;7.45;;;8.50;99.90;;;;;;2071582;28;20060;-70
2021/11/06 00:08:50;;;;;;;12.18;8.20;;;8.50;99.90;;;;;;2073374;28;20025;-70
2021/11/06 00:09:51;;;;;;;11.48;8.20;;;8.40;99.90;;;;;;2074210;28;20021;-70
2021/11/06 00:10:52;;;;;;;12.73;8.30;;;8.40;99.90;;;;;;2073984;28;20018;-70
2021/11/06 00:11:52;;;;;;;11.55;7.90;;;8.40;99.90;;;;;;2074188;28;20029;-70
2021/11/06 00:12:53;;;;;;;12.05;7.95;;;8.40;99.90;;;;;;2074050;28;20113;-70
2021/11/06 00:13:54;;;;;;;15.05;9.60;;;8.40;99.90;;;;;;2074329;28;20034;-70
2021/11/06 00:14:55;;;;;;;15.80;8.68;;;8.40;99.90;;;;;;2073940;28;20420;-70
2021/11/06 00:15:56;;;;;;;11.10;8.43;;;8.40;99.90;;;;;;2074002;28;20079;-70
2021/11/06 00:16:57;;;;;;;18.50;9.20;;;8.40;99.90;;;;;;2073965;28;20444;-70
2021/11/06 00:17:58;;;;;;;19.15;9.35;;;8.40;99.90;;;;;;2074281;28;20057;-70
2021/11/06 00:18:59;;;;;;;15.30;9.48;;;8.40;99.90;;;;;;2072950;28;20026;-70
2021/11/06 00:19:59;;;;;;;16.42;9.60;;;8.40;99.90;;;;;;2074220;28;20034;-70
2021/11/06 00:21:00;;;;;;;15.43;9.77;;;8.40;99.90;;;;;;2073751;28;20037;-70
2021/11/06 00:22:01;;;;;;;13.93;9.77;;;8.40;99.90;;;;;;2074082;28;20428;-70
2021/11/06 00:23:02;;;;;;;15.18;9.75;;;8.40;99.90;;;;;;2074118;28;20033;-71
2021/11/06 00:24:03;;;;;;;14.18;9.82;;;8.40;99.90;;;;;;2074152;28;20021;-71
2021/11/06 00:25:05;;;;;;;14.98;8.85;;;8.40;99.90;;;;;;2073680;28;20037;-70
2021/11/06 00:26:05;;;;;;;12.88;9.55;;;8.40;99.90;;;;;;2081751;28;20533;-70
2021/11/06 00:27:06;;;;;;;15.50;9.35;;;8.40;99.90;;;;;;2081331;28;20555;-71
2021/11/06 00:28:07;;;;;;;14.02;8.85;;;8.40;99.90;;;;;;2073915;28;20022;-70
2021/11/06 00:29:07;;;;;;;14.82;9.50;;;8.40;99.90;;;;;;2073707;28;20033;-70
2021/11/06 00:30:10;;;;;;;12.85;8.02;;;8.40;99.90;;;;;;2073421;28;20026;-70
2021/11/06 00:31:11;;;;;;;13.15;8.80;;;8.40;99.90;;;;;;2073993;28;20465;-70
2021/11/06 00:32:12;;;;;;;13.88;9.88;;;8.40;99.90;;;;;;2074114;28;20026;-70
2021/11/06 00:33:12;;;;;;;14.10;8.80;;;8.40;99.90;;;;;;2073851;28;20033;-70
2021/11/06 00:34:13;;;;;;;15.63;9.13;;;8.40;99.90;;;;;;2073863;28;20025;-70
2021/11/06 00:35:15;;;;;;;12.98;8.38;;;8.40;99.90;;;;;;2074312;28;20034;-70
2021/11/06 00:36:15;;;;;;;14.18;8.65;;;8.40;99.90;;;;;;2074120;28;20101;-71
2021/11/06 00:37:17;;;;;;;16.17;9.15;;;8.40;99.90;;;;;;2074158;28;20033;-71
2021/11/06 00:38:17;;;;;;;14.13;9.98;;;8.40;99.90;;;;;;2073511;28;20067;-70
2021/11/06 00:39:18;;;;;;;11.13;8.30;;;8.40;99.90;;;;;;2074040;28;20072;-70
2021/11/06 00:40:19;;;;;;;13.98;8.60;;;8.40;99.90;;;;;;2073344;28;20113;-70
2021/11/06 00:41:19;;;;;;;12.60;8.93;;;8.40;99.90;;;;;;2073306;28;20533;-71
2021/11/06 00:42:20;;;;;;;18.02;8.98;;;8.40;99.90;;;;;;2065549;28;20027;-71
2021/11/06 00:43:21;;;;;;;14.68;9.50;;;8.40;99.90;;;;;;2070955;28;20057;-71
2021/11/06 00:44:22;;;;;;;13.65;9.50;;;8.40;99.90;;;;;;2073809;28;20026;-70
2021/11/06 00:45:23;;;;;;;17.85;10.43;;;8.40;99.90;;;;;;2065999;28;20095;-70
2021/11/06 00:46:24;;;;;;;13.10;9.52;;;8.40;99.90;;;;;;2069200;28;20037;-70
2021/11/06 00:47:24;;;;;;;16.23;10.13;;;8.40;99.90;;;;;;2074280;28;20030;-71
2021/11/06 00:48:25;;;;;;;15.15;10.07;;;8.30;99.90;;;;;;2073414;28;20247;-70
2021/11/06 00:49:26;;;;;;;15.82;9.95;;;8.30;99.90;;;;;;2073915;28;20028;-71
2021/11/06 00:50:27;;;;;;;13.23;9.00;;;8.30;99.90;;;;;;2073770;28;20474;-70
2021/11/06 00:51:27;;;;;;;13.55;8.77;;;8.30;99.90;;;;;;2073956;28;20022;-70
2021/11/06 00:52:28;;;;;;;16.92;9.73;;;8.30;99.90;;;;;;2073777;28;20026;-71
2021/11/06 00:53:29;;;;;;;14.10;9.90;;;8.30;99.90;;;;;;2074265;28;20084;-71
2021/11/06 00:54:29;;;;;;;11.80;8.85;;;8.30;99.90;;;;;;2073691;28;20017;-70
2021/11/06 00:55:30;;;;;;;13.98;8.82;;;8.30;99.90;;;;;;2074102;28;20022;-71
2021/11/06 00:56:30;;;;;;;13.13;8.85;;;8.30;99.90;;;;;;2073871;28;20021;-70
2021/11/06 00:57:31;;;;;;;13.05;8.80;;;8.30;99.90;;;;;;2071577;28;20018;-71
2021/11/06 00:58:31;;;;;;;13.18;9.93;;;8.30;99.90;;;;;;2072121;28;20030;-70
2021/11/06 00:59:32;;;;;;;13.88;9.15;;;8.30;99.90;;;;;;2072837;28;20477;-71
2021/11/06 01:00:33;;;;;;;15.80;10.38;;;8.30;99.90;;;;;;2072615;28;20034;-70
2021/11/06 01:01:33;;;;;;;19.75;11.43;;;8.30;99.90;;;;;;2073235;28;20021;-71
2021/11/06 01:02:34;;;;;;;13.98;10.63;;;8.30;99.90;;;;;;2080035;28;20026;-71
2021/11/06 01:03:35;;;;;;;14.75;10.90;;;8.30;99.90;;;;;;2072912;28;20026;-71
2021/11/06 01:04:37;;;;;;;15.45;11.05;;;8.30;99.90;;;;;;2072389;28;20398;-70
2021/11/06 01:05:37;;;;;;;24.73;12.93;;;8.30;99.90;;;;;;2072606;28;20022;-70
2021/11/06 01:06:38;;;;;;;20.77;12.90;;;8.20;99.90;;;;;;2072480;28;20057;-70
2021/11/06 01:07:40;;;;;;;18.95;11.95;;;8.30;99.90;;;;;;2072729;28;20385;-70
2021/11/06 01:08:43;;;;;;;21.77;12.52;;;8.30;99.90;;;;;;2072161;28;20493;-71
2021/11/06 01:09:43;;;;;;;18.98;11.90;;;8.20;99.90;;;;;;2072781;28;20101;-71
2021/11/06 01:10:44;;;;;;;14.18;11.50;;;8.20;99.90;;;;;;2072584;28;20022;-70
2021/11/06 01:11:45;;;;;;;16.42;11.60;;;8.20;99.90;;;;;;2069174;28;20033;-70
2021/11/06 01:12:46;;;;;;;19.40;12.27;;;8.20;99.90;;;;;;2071060;28;20129;-70
2021/11/06 01:13:46;;;;;;;15.90;12.70;;;8.20;99.90;;;;;;2071721;28;20029;-70
2021/11/06 01:14:47;;;;;;;20.95;11.38;;;8.20;99.90;;;;;;2064401;28;20114;-70
2021/11/06 01:15:47;;;;;;;17.95;12.15;;;8.20;99.90;;;;;;2069984;28;20508;-70
2021/11/06 01:16:48;;;;;;;15.60;10.98;;;8.20;99.90;;;;;;2072515;28;20050;-71
2021/11/06 01:17:49;;;;;;;18.63;12.23;;;8.20;99.90;;;;;;2072580;28;20053;-70
2021/11/06 01:18:49;;;;;;;14.80;12.07;;;8.20;99.90;;;;;;2072073;28;20030;-70
2021/11/06 01:19:50;;;;;;;18.50;12.50;;;8.20;99.90;;;;;;2072474;28;20517;-70
2021/11/06 01:20:51;;;;;;;18.15;12.80;;;8.20;99.90;;;;;;2072667;28;20054;-70
2021/11/06 01:21:52;;;;;;;16.58;12.25;;;8.20;99.90;;;;;;2072314;28;20076;-70
2021/11/06 01:22:52;;;;;;;23.92;13.48;;;8.20;99.90;;;;;;2072510;28;20163;-71
2021/11/06 01:23:53;;;;;;;21.27;13.63;;;8.20;99.90;;;;;;2072116;28;20113;-71
2021/11/06 01:24:53;;;;;;;19.33;13.93;;;8.20;99.90;;;;;;2072605;28;20026;-71
2021/11/06 01:25:54;;;;;;;20.52;14.50;;;8.20;99.90;;;;;;2071418;28;20041;-71
2021/11/06 01:26:56;;;;;;;17.83;13.50;;;8.20;99.90;;;;;;2068290;28;20033;-70
2021/11/06 01:27:56;;;;;;;19.67;13.20;;;8.20;99.90;;;;;;2072752;28;20033;-71
2021/11/06 01:28:57;;;;;;;21.27;14.55;;;8.20;99.90;;;;;;2071925;28;20022;-70
2021/11/06 01:29:58;;;;;;;21.23;14.88;;;8.20;99.90;;;;;;2071421;28;20022;-70
2021/11/06 01:30:58;;;;;;;22.33;15.18;;;8.20;99.90;;;;;;2071670;28;20069;-70
2021/11/06 01:31:59;;;;;;;22.20;15.13;;;8.30;99.90;;;;;;2069026;28;20096;-70
2021/11/06 01:33:00;;;;;;;22.63;14.25;;;8.20;99.90;;;;;;2072247;28;20371;-70
2021/11/06 01:34:00;;;;;;;22.05;15.23;;;8.20;99.90;;;;;;2072451;28;20029;-70
2021/11/06 01:35:01;;;;;;;19.48;14.85;;;8.20;99.90;;;;;;2072353;28;20046;-70
2021/11/06 01:36:03;;;;;;;18.85;14.98;;;8.20;99.90;;;;;;2072431;28;20447;-70
2021/11/06 01:37:04;;;;;;;22.52;16.50;;;8.20;99.90;;;;;;2072335;28;20036;-71
2021/11/06 01:38:04;;;;;;;24.52;16.90;;;8.20;99.90;;;;;;2072012;28;20765;-71
2021/11/06 01:39:05;;;;;;;25.27;17.15;;;8.20;99.90;;;;;;2072440;28;20458;-70
2021/11/06 01:40:08;;;;;;;21.55;17.30;;;8.20;99.90;;;;;;2071742;28;20033;-70
2021/11/06 01:41:10;;;;;;;23.05;16.83;;;8.20;99.90;;;;;;2072463;28;20042;-70
2021/11/06 01:42:11;;;;;;;21.05;17.42;;;8.30;99.90;;;;;;2064059;28;20018;-71
2021/11/06 01:43:11;;;;;;;27.83;17.48;;;8.20;99.90;;;;;;2067227;28;20056;-70
2021/11/06 01:44:12;;;;;;;22.10;16.88;;;8.20;99.90;;;;;;2071281;28;20489;-70
2021/11/06 01:45:14;;;;;;;23.85;17.13;;;8.20;99.90;;;;;;2072156;28;20053;-71
2021/11/06 01:46:15;;;;;;;24.85;16.77;;;8.20;99.90;;;;;;2071027;28;20075;-70
2021/11/06 01:47:16;;;;;;;20.98;16.33;;;8.20;99.90;;;;;;2070520;28;20018;-70
2021/11/06 01:48:17;;;;;;;23.48;16.67;;;8.30;99.90;;;;;;2074487;28;20048;-71
2021/11/06 01:49:21;;;;;;;22.27;17.77;;;8.20;99.90;;;;;;2075493;28;20085;-70
2021/11/06 01:50:23;;;;;;;24.23;17.25;;;8.20;99.90;;;;;;2080299;28;20040;-70
2021/11/06 01:51:25;;;;;;;22.08;17.70;;;8.20;99.90;;;;;;2076509;28;20014;-70
2021/11/06 01:52:26;;;;;;;21.15;16.58;;;8.20;99.90;;;;;;2072286;28;20168;-70
2021/11/06 01:53:27;;;;;;;21.63;16.77;;;8.20;99.90;;;;;;2072171;28;20123;-70
2021/11/06 01:54:28;;;;;;;21.52;16.10;;;8.20;99.90;;;;;;2071747;28;20493;-70
2021/11/06 01:55:28;;;;;;;20.80;16.83;;;8.20;99.90;;;;;;2072542;28;20026;-70
2021/11/06 01:56:29;;;;;;;25.10;17.02;;;8.20;99.90;;;;;;2072357;28;20034;-70
2021/11/06 01:57:29;;;;;;;25.45;18.52;;;8.30;99.90;;;;;;2071978;28;20037;-70
2021/11/06 01:58:31;;;;;;;23.95;18.35;;;8.20;99.90;;;;;;2071615;28;20483;-71
2021/11/06 01:59:32;;;;;;;25.15;18.77;;;8.20;99.90;;;;;;2071723;28;20029;-71
2021/11/06 02:00:33;;;;;;;24.52;18.15;;;8.20;99.90;;;;;;2072831;28;20032;-71
2021/11/06 02:01:35;;;;;;;27.52;18.35;;;8.20;99.90;;;;;;2071950;28;20037;-71
2021/11/06 02:02:35;;;;;;;26.35;17.15;;;8.20;99.90;;;;;;2071733;28;20045;-70
2021/11/06 02:03:36;;;;;;;23.73;18.05;;;8.20;99.90;;;;;;2072254;28;20481;-70
2021/11/06 02:04:38;;;;;;;27.23;18.60;;;8.20;99.90;;;;;;2072224;28;20018;-70
2021/11/06 02:05:38;;;;;;;25.17;19.20;;;8.20;99.90;;;;;;2071874;28;20041;-70
2021/11/06 02:06:39;;;;;;;24.75;17.88;;;8.20;99.90;;;;;;2071583;28;20100;-70
2021/11/06 02:07:40;;;;;;;24.58;18.55;;;8.30;99.90;;;;;;2071719;28;20052;-70
2021/11/06 02:08:41;;;;;;;28.90;18.70;;;8.20;99.90;;;;;;2070880;28;20080;-70
2021/11/06 02:09:41;;;;;;;25.38;18.75;;;8.20;99.90;;;;;;2071096;28;20018;-70
2021/11/06 02:10:43;;;;;;;29.30;18.90;;;8.20;99.90;;;;;;2071960;28;20427;-70
2021/11/06 02:11:44;;;;;;;23.85;17.45;;;8.20;99.90;;;;;;2072038;28;20137;-70
2021/11/06 02:12:46;;;;;;;31.33;19.58;;;8.20;99.90;;;;;;2072030;28;20026;-71
2021/11/06 02:13:47;;;;;;;27.73;18.75;;;8.20;99.90;;;;;;2072026;28;20540;-71
2021/11/06 02:14:47;;;;;;;31.08;19.65;;;8.20;99.90;;;;;;2072374;28;21106;-70
2021/11/06 02:15:48;;;;;;;24.38;18.20;;;8.20;99.90;;;;;;2071926;28;20065;-71
2021/11/06 02:16:49;;;;;;;27.17;19.08;;;8.20;99.90;;;;;;2072069;28;20087;-71
2021/11/06 02:17:50;;;;;;;26.77;18.88;;;8.20;99.90;;;;;;2071871;28;20026;-70
2021/11/06 02:18:51;;;;;;;29.00;18.17;;;8.20;99.90;;;;;;2071444;28;20052;-71
2021/11/06 02:19:51;;;;;;;27.08;18.73;;;8.20;99.90;;;;;;2072098;28;20030;-70
2021/11/06 02:21:00;;;;;;;27.98;19.77;;;8.20;99.90;;;;;;2071677;28;20041;-71
2021/11/06 02:22:01;;;;;;;26.67;19.20;;;8.20;99.90;;;;;;2071875;28;20398;-71
2021/11/06 02:23:03;;;;;;;25.13;17.60;;;8.20;99.90;;;;;;2071387;28;20037;-71
2021/11/06 02:24:04;;;;;;;26.30;18.45;;;8.20;99.90;;;;;;2071177;28;20032;-70
2021/11/06 02:25:06;;;;;;;26.55;17.33;;;8.20;99.90;;;;;;2071176;28;20061;-70
2021/11/06 02:26:11;;;;;;;28.70;18.02;;;8.20;99.90;;;;;;2063790;28;20076;-70
2021/11/06 02:27:12;;;;;;;29.17;18.80;;;8.20;99.90;;;;;;2068201;28;20026;-70
2021/11/06 02:28:13;;;;;;;25.35;19.10;;;8.20;99.90;;;;;;2071648;28;20026;-70
2021/11/06 02:29:14;;;;;;;29.42;18.85;;;8.20;99.90;;;;;;2072208;28;20140;-70
2021/11/06 02:30:16;;;;;;;26.98;18.92;;;8.20;99.90;;;;;;2071755;28;20029;-71
2021/11/06 02:31:21;;;;;;;28.83;19.02;;;8.20;99.90;;;;;;2071878;28;20378;-71
2021/11/06 02:32:22;;;;;;;26.63;19.52;;;8.20;99.90;;;;;;2071747;28;20026;-71
2021/11/06 02:33:22;;;;;;;27.17;18.88;;;8.20;99.90;;;;;;2072163;28;20034;-71
2021/11/06 02:34:23;;;;;;;27.80;18.60;;;8.20;99.90;;;;;;2071815;28;20053;-71
2021/11/06 02:35:24;;;;;;;32.10;18.88;;;8.20;99.90;;;;;;2071956;28;20152;-70
2021/11/06 02:36:24;;;;;;;28.33;18.15;;;8.20;99.90;;;;;;2071375;28;20054;-71
2021/11/06 02:37:26;;;;;;;26.55;18.63;;;8.20;99.90;;;;;;2072059;28;20145;-71
2021/11/06 02:38:28;;;;;;;27.98;18.25;;;8.20;99.90;;;;;;2071556;28;20030;-71
2021/11/06 02:39:28;;;;;;;25.73;19.02;;;8.20;99.90;;;;;;2071826;28;20112;-71
2021/11/06 02:40:29;;;;;;;27.73;18.15;;;8.30;99.90;;;;;;2071734;28;20030;-71
2021/11/06 02:41:30;;;;;;;28.13;17.55;;;8.20;99.90;;;;;;2071934;28;20433;-70
2021/11/06 02:42:30;;;;;;;27.63;17.42;;;8.20;99.90;;;;;;2071518;28;20034;-71
2021/11/06 02:43:31;;;;;;;29.08;18.45;;;8.30;99.90;;;;;;2072015;28;20018;-71
2021/11/06 02:44:31;;;;;;;26.42;17.77;;;8.20;99.90;;;;;;2071959;28;20030;-71
2021/11/06 02:45:32;;;;;;;27.98;17.38;;;8.20;99.90;;;;;;2071999;28;20521;-71
2021/11/06 02:46:38;;;;;;;25.92;16.98;;;8.20;99.90;;;;;;2071785;28;20116;-71
2021/11/06 02:47:39;;;;;;;29.73;16.42;;;8.30;99.90;;;;;;2071884;28;20026;-70
2021/11/06 02:48:39;;;;;;;32.00;17.27;;;8.20;99.90;;;;;;2071286;28;20040;-71
2021/11/06 02:49:40;;;;;;;29.63;16.75;;;8.20;99.90;;;;;;2071862;28;20178;-71
2021/11/06 02:50:40;;;;;;;25.70;15.98;;;8.20;99.90;;;;;;2067194;28;20125;-71
2021/11/06 02:51:41;;;;;;;27.02;17.02;;;8.20;99.90;;;;;;2070941;28;20053;-71
2021/11/06 02:52:42;;;;;;;27.13;16.55;;;8.20;99.90;;;;;;2071559;28;20366;-71
2021/11/06 02:53:42;;;;;;;28.65;17.45;;;8.30;99.90;;;;;;2071903;28;20108;-71
2021/11/06 02:54:43;;;;;;;30.55;16.08;;;8.20;99.90;;;;;;2071596;28;20045;-71
2021/11/06 02:55:44;;;;;;;25.70;16.23;;;8.20;99.90;;;;;;2071938;28;20065;-71
2021/11/06 02:56:44;;;;;;;26.80;15.60;;;8.20;99.90;;;;;;2071580;28;20390;-71
2021/11/06 02:57:45;;;;;;;26.23;15.55;;;8.20;99.90;;;;;;2071933;28;20865;-71
2021/11/06 02:58:45;;;;;;;22.63;13.63;;;8.20;99.90;;;;;;2071048;28;20474;-71
2021/11/06 02:59:46;;;;;;;25.92;15.25;;;8.20;99.90;;;;;;2071769;28;20056;-71
2021/11/06 03:00:47;;;;;;;28.27;15.95;;;8.20;99.90;;;;;;2071480;28;20028;-71
2021/11/06 03:01:48;;;;;;;26.20;14.88;;;8.20;99.90;;;;;;2071790;28;20025;-71
2021/11/06 03:02:48;;;;;;;29.45;17.10;;;8.20;99.90;;;;;;2071518;28;20490;-70
2021/11/06 03:03:49;;;;;;;30.58;15.95;;;8.20;99.90;;;;;;2071668;28;20018;-71
2021/11/06 03:04:50;;;;;;;26.27;15.55;;;8.20;99.90;;;;;;2071156;28;20026;-71
2021/11/06 03:05:51;;;;;;;24.45;13.63;;;8.20;99.90;;;;;;2071620;28;20014;-71
2021/11/06 03:06:51;;;;;;;20.52;13.27;;;8.20;99.90;;;;;;2070146;28;20026;-71
2021/11/06 03:07:52;;;;;;;26.85;13.80;;;8.20;99.90;;;;;;2070807;28;20096;-71
2021/11/06 03:08:53;;;;;;;28.17;15.45;;;8.20;99.90;;;;;;2071126;28;20033;-71
2021/11/06 03:09:54;;;;;;;29.08;15.77;;;8.20;99.90;;;;;;2071845;28;20041;-71
2021/11/06 03:10:54;;;;;;;27.40;15.07;;;8.20;99.90;;;;;;2071640;28;20034;-71
2021/11/06 03:11:55;;;;;;;28.63;15.93;;;8.20;99.90;;;;;;2071389;28;20621;-71
2021/11/06 03:12:57;;;;;;;27.15;14.82;;;8.20;99.90;;;;;;2071817;28;20022;-70
2021/11/06 03:13:58;;;;;;;23.73;14.60;;;8.20;99.90;;;;;;2071560;28;20406;-70
2021/11/06 03:14:58;;;;;;;33.35;15.77;;;8.20;99.90;;;;;;2071891;28;20065;-71
2021/11/06 03:15:59;;;;;;;26.70;15.00;;;8.20;99.90;;;;;;2071700;28;20034;-71
2021/11/06 03:17:00;;;;;;;26.80;14.60;;;8.10;99.90;;;;;;2071593;28;20111;-71
2021/11/06 03:18:00;;;;;;;27.75;14.98;;;8.10;99.90;;;;;;2071434;28;20438;-71
2021/11/06 03:19:01;;;;;;;33.33;15.77;;;8.10;99.90;;;;;;2071032;28;20034;-71
2021/11/06 03:20:04;;;;;;;25.90;14.75;;;8.10;99.90;;;;;;2071007;28;20478;-71
2021/11/06 03:21:05;;;;;;;28.05;15.57;;;8.10;99.90;;;;;;2063108;28;20034;-71
2021/11/06 03:22:06;;;;;;;29.95;14.90;;;8.10;99.90;;;;;;2066447;28;20061;-71
2021/11/06 03:23:07;;;;;;;25.10;14.32;;;8.10;99.90;;;;;;2071634;28;20032;-71
2021/11/06 03:24:07;;;;;;;26.73;14.07;;;8.10;99.90;;;;;;2071617;28;20033;-71
2021/11/06 03:25:09;;;;;;;28.67;14.50;;;8.10;99.90;;;;;;2071722;28;20371;-71
2021/11/06 03:26:10;;;;;;;19.77;13.13;;;8.10;99.90;;;;;;2071640;28;20037;-71
2021/11/06 03:27:10;;;;;;;25.42;13.93;;;8.10;99.90;;;;;;2071865;28;20022;-71
2021/11/06 03:28:11;;;;;;;25.67;13.77;;;8.10;99.90;;;;;;2070721;28;20029;-71
2021/11/06 03:29:11;;;;;;;26.73;14.68;;;8.10;99.90;;;;;;2071610;28;20032;-71
2021/11/06 03:30:12;;;;;;;22.30;14.85;;;8.10;99.90;;;;;;2071500;28;20025;-70
2021/11/06 03:31:13;;;;;;;26.83;13.82;;;8.10;99.90;;;;;;2071494;28;20030;-70
2021/11/06 03:32:14;;;;;;;26.75;14.02;;;8.10;99.90;;;;;;2071324;28;20080;-71
2021/11/06 03:33:14;;;;;;;22.20;13.70;;;8.10;99.90;;;;;;2071725;28;20553;-71
2021/11/06 03:34:15;;;;;;;28.45;13.85;;;8.10;99.90;;;;;;2069131;28;20069;-71
2021/11/06 03:35:16;;;;;;;23.42;14.05;;;8.10;99.90;;;;;;2071591;28;20029;-71
2021/11/06 03:36:17;;;;;;;22.25;14.18;;;8.00;99.90;;;;;;2070966;28;20026;-71
2021/11/06 03:37:18;;;;;;;25.15;13.80;;;8.00;99.90;;;;;;2071592;28;20061;-71
2021/11/06 03:38:18;;;;;;;26.67;13.30;;;8.00;99.90;;;;;;2070888;28;20084;-71
2021/11/06 03:39:20;;;;;;;23.13;13.57;;;8.00;99.90;;;;;;2071550;28;20038;-71
2021/11/06 03:40:21;;;;;;;21.35;12.80;;;8.00;99.90;;;;;;2071285;28;20037;-71
2021/11/06 03:41:21;;;;;;;26.25;14.15;;;8.00;99.90;;;;;;2071561;28;20036;-71
2021/11/06 03:42:22;;;;;;;22.60;12.32;;;8.00;99.90;;;;;;2071573;28;20679;-71
2021/11/06 03:43:23;;;;;;;25.70;13.57;;;8.00;99.90;;;;;;2071502;28;20077;-71
2021/11/06 03:44:23;;;;;;;20.50;12.52;;;8.00;99.90;;;;;;2071433;28;20083;-70
2021/11/06 03:45:24;;;;;;;22.70;12.45;;;8.00;99.90;;;;;;2071485;28;20018;-70
2021/11/06 03:46:25;;;;;;;21.60;12.50;;;7.90;99.90;;;;;;2071858;28;20482;-70
2021/11/06 03:47:25;;;;;;;24.10;12.63;;;7.90;99.90;;;;;;2070645;28;20560;-71
2021/11/06 03:48:26;;;;;;;18.80;11.43;;;7.90;99.90;;;;;;2070882;28;20021;-70
2021/11/06 03:49:27;;;;;;;26.15;12.02;;;8.00;99.90;;;;;;2071350;28;20026;-70
2021/11/06 03:50:27;;;;;;;22.17;12.35;;;7.90;99.90;;;;;;2070592;28;20375;-71
2021/11/06 03:51:28;;;;;;;20.48;12.82;;;8.00;99.90;;;;;;2066945;28;20110;-71
2021/11/06 03:52:29;;;;;;;19.33;11.70;;;7.90;99.90;;;;;;2071223;28;20155;-71
2021/11/06 03:53:29;;;;;;;19.45;11.40;;;8.00;99.90;;;;;;2071777;28;20022;-71
2021/11/06 03:54:30;;;;;;;19.73;11.55;;;7.90;99.90;;;;;;2071028;28;20029;-71
2021/11/06 03:55:31;;;;;;;20.95;11.05;;;8.00;99.90;;;;;;2071421;28;20515;-71
2021/11/06 03:56:32;;;;;;;18.58;10.88;;;7.90;99.90;;;;;;2071293;28;20029;-71
2021/11/06 03:57:33;;;;;;;19.42;11.32;;;7.90;99.90;;;;;;2071387;28;20025;-71
2021/11/06 03:58:34;;;;;;;19.17;11.50;;;7.90;99.90;;;;;;2071225;28;20022;-71
2021/11/06 03:59:35;;;;;;;22.08;11.45;;;7.90;99.90;;;;;;2071167;28;20079;-71
2021/11/06 04:00:35;;;;;;;17.50;11.63;;;8.00;99.90;;;;;;2071019;28;20018;-71
2021/11/06 04:01:36;;;;;;;19.27;10.65;;;8.00;99.90;;;;;;2068959;28;20486;-71
2021/11/06 04:02:37;;;;;;;19.02;11.55;;;8.00;99.90;;;;;;2071162;28;20495;-70
2021/11/06 04:03:38;;;;;;;21.23;11.02;;;7.90;99.90;;;;;;2071602;28;20052;-70
2021/11/06 04:04:38;;;;;;;19.58;10.82;;;7.90;99.90;;;;;;2071249;28;20021;-70
2021/11/06 04:05:39;;;;;;;19.58;11.30;;;8.00;99.90;;;;;;2071400;28;20026;-71
2021/11/06 04:06:39;;;;;;;20.05;11.15;;;8.00;99.90;;;;;;2071582;28;20084;-71
2021/11/06 04:07:41;;;;;;;21.65;11.57;;;8.00;99.90;;;;;;2071101;28;20057;-71
2021/11/06 04:08:42;;;;;;;20.52;10.68;;;8.00;99.90;;;;;;2070736;28;20030;-70
2021/11/06 04:09:42;;;;;;;16.63;10.82;;;8.00;99.90;;;;;;2071341;28;20033;-71
2021/11/06 04:10:43;;;;;;;19.48;10.80;;;8.00;99.90;;;;;;2071545;28;20394;-70
2021/11/06 04:11:43;;;;;;;15.82;9.80;;;8.00;99.90;;;;;;2071681;28;20108;-71
2021/11/06 04:12:45;;;;;;;18.25;10.85;;;8.00;99.90;;;;;;2071487;28;20022;-71
2021/11/06 04:13:46;;;;;;;18.17;11.23;;;8.00;99.90;;;;;;2071197;28;20064;-71
2021/11/06 04:14:46;;;;;;;17.42;11.43;;;8.00;99.90;;;;;;2071466;28;20077;-71
2021/11/06 04:15:47;;;;;;;17.30;10.55;;;8.00;99.90;;;;;;2068819;28;20581;-71
2021/11/06 04:16:47;;;;;;;16.58;11.38;;;8.00;99.90;;;;;;2071541;28;20033;-71
2021/11/06 04:17:48;;;;;;;23.58;12.00;;;8.00;99.90;;;;;;2071466;28;20026;-71
2021/11/06 04:18:48;;;;;;;22.63;10.85;;;8.00;99.90;;;;;;2070814;28;20049;-70
2021/11/06 04:19:49;;;;;;;16.23;11.32;;;8.00;99.90;;;;;;2070675;28;20055;-70
2021/11/06 04:20:50;;;;;;;21.45;11.18;;;8.00;99.90;;;;;;2070430;28;20037;-71
2021/11/06 04:21:50;;;;;;;17.50;11.18;;;8.00;99.90;;;;;;2071506;28;20033;-70
2021/11/06 04:22:51;;;;;;;17.88;11.70;;;8.00;99.90;;;;;;2071042;28;20462;-71
2021/11/06 04:23:52;;;;;;;19.73;12.20;;;8.10;99.90;;;;;;2071455;28;20359;-71
2021/11/06 04:24:52;;;;;;;20.42;11.88;;;8.00;99.90;;;;;;2071348;28;20064;-71
2021/11/06 04:25:53;;;;;;;16.55;11.68;;;8.10;99.90;;;;;;2069864;28;20030;-71
2021/11/06 04:26:54;;;;;;;19.17;11.90;;;8.10;99.90;;;;;;2066407;28;20034;-71
2021/11/06 04:27:54;;;;;;;18.50;12.02;;;8.10;99.90;;;;;;2071550;28;20030;-71
2021/11/06 04:28:55;;;;;;;20.00;12.65;;;8.10;99.90;;;;;;2069946;28;20026;-71
2021/11/06 04:29:55;;;;;;;17.23;11.00;;;8.10;99.90;;;;;;2070574;28;20095;-71
2021/11/06 04:30:56;;;;;;;21.10;12.48;;;8.10;99.90;;;;;;2070295;28;20037;-70
2021/11/06 04:31:56;;;;;;;18.92;12.32;;;8.10;99.90;;;;;;2071259;28;20024;-71
2021/11/06 04:32:57;;;;;;;19.98;12.07;;;8.10;99.90;;;;;;2071705;28;20065;-71
2021/11/06 04:34:00;;;;;;;19.60;11.98;;;8.10;99.90;;;;;;2073083;28;20450;-71
2021/11/06 04:35:01;;;;;;;19.00;12.15;;;8.10;99.90;;;;;;2072787;28;20125;-70
2021/11/06 04:36:02;;;;;;;20.77;12.15;;;8.20;99.90;;;;;;2073171;28;20044;-71
2021/11/06 04:37:03;;;;;;;20.52;12.35;;;8.20;99.90;;;;;;2069911;28;20121;-71
2021/11/06 04:38:03;;;;;;;18.83;13.15;;;8.20;99.90;;;;;;2069136;28;20089;-70
2021/11/06 04:39:04;;;;;;;22.08;13.07;;;8.20;99.90;;;;;;2071421;28;20026;-71
2021/11/06 04:40:07;;;;;;;21.65;13.32;;;8.20;99.90;;;;;;2067111;28;20030;-70
2021/11/06 04:41:07;;;;;;;22.25;12.85;;;8.20;99.90;;;;;;2068565;28;20382;-71
2021/11/06 04:42:08;;;;;;;24.67;13.77;;;8.20;99.90;;;;;;2068440;28;20022;-70
2021/11/06 04:43:09;;;;;;;19.05;12.50;;;8.20;99.90;;;;;;2068436;28;20104;-70
2021/11/06 04:44:09;;;;;;;20.92;12.70;;;8.30;99.90;;;;;;2066249;28;20722;-71
2021/11/06 04:45:11;;;;;;;21.55;13.15;;;8.20;99.90;;;;;;2066262;28;20026;-71
2021/11/06 04:46:12;;;;;;;19.73;12.43;;;8.20;99.90;;;;;;2067273;28;20053;-71
2021/11/06 04:47:12;;;;;;;23.05;14.00;;;8.30;99.90;;;;;;2069136;28;20735;-70
2021/11/06 04:48:13;;;;;;;19.90;12.48;;;8.30;99.90;;;;;;2066868;28;20034;-70
2021/11/06 04:49:13;;;;;;;19.70;14.07;;;8.30;99.90;;;;;;2066789;28;20114;-71
2021/11/06 04:50:14;;;;;;;25.63;13.23;;;8.30;99.90;;;;;;2069369;28;20022;-70
2021/11/06 04:51:15;;;;;;;20.50;14.10;;;8.30;99.90;;;;;;2067824;28;20037;-70
2021/11/06 04:52:15;;;;;;;21.00;12.75;;;8.30;99.90;;;;;;2068321;28;20037;-70
2021/11/06 04:53:16;;;;;;;21.27;13.80;;;8.30;99.90;;;;;;2072917;28;20026;-70
2021/11/06 04:54:16;;;;;;;19.35;11.90;;;8.30;99.90;;;;;;2071868;28;20033;-70
2021/11/06 04:55:17;;;;;;;22.00;12.43;;;8.40;99.90;;;;;;2066283;28;20058;-70
2021/11/06 04:56:18;;;;;;;18.23;12.73;;;8.30;99.90;;;;;;2068323;28;20034;-70
2021/11/06 04:57:19;;;;;;;19.70;12.60;;;8.40;99.90;;;;;;2068474;28;20772;-71
2021/11/06 04:58:19;;;;;;;21.23;13.02;;;8.40;99.90;;;;;;2066809;28;20496;-70
2021/11/06 04:59:20;;;;;;;21.08;12.32;;;8.40;99.90;;;;;;2067872;28;20061;-70
2021/11/06 05:00:21;;;;;;;18.48;12.48;;;8.40;99.90;;;;;;2070069;28;20034;-70
2021/11/06 05:01:21;;;;;;;20.23;12.23;;;8.40;99.90;;;;;;2074787;28;20121;-71
2021/11/06 05:02:22;;;;;;;18.25;12.38;;;8.40;99.90;;;;;;2074785;28;20044;-70
2021/11/06 05:03:22;;;;;;;20.75;11.68;;;8.40;99.90;;;;;;2064504;28;20058;-70
2021/11/06 05:04:23;;;;;;;17.50;12.23;;;8.40;99.90;;;;;;2066139;28;20022;-70
2021/11/06 05:05:24;;;;;;;19.17;12.35;;;8.40;99.90;;;;;;2064314;28;20037;-70
2021/11/06 05:06:26;;;;;;;23.70;12.60;;;8.40;99.90;;;;;;2069619;28;20480;-70
2021/11/06 05:07:27;;;;;;;21.77;12.10;;;8.50;99.90;;;;;;2064287;28;20027;-70
2021/11/06 05:08:28;;;;;;;18.52;10.68;;;8.40;99.90;;;;;;2066463;28;20093;-70
2021/11/06 05:09:28;;;;;;;18.42;11.55;;;8.40;99.90;;;;;;2067086;28;20525;-70
2021/11/06 05:10:29;;;;;;;19.10;11.85;;;8.40;99.90;;;;;;2066584;28;20707;-70
2021/11/06 05:11:30;;;;;;;17.40;11.40;;;8.50;99.90;;;;;;2067140;28;20072;-70
2021/11/06 05:12:30;;;;;;;19.52;11.50;;;8.50;99.90;;;;;;2067883;28;20502;-70
2021/11/06 05:13:31;;;;;;;14.88;10.88;;;8.50;99.90;;;;;;2067794;28;20029;-70